Time;durP1;ratioP1;P1;durP2;ratioP2;P2;SDS_P1;SDS_P2;PMS_P1;PMS_P2;Temp;Humidity;BMP_temperature;BMP_pressure;BME280_temperature;BME280_humidity;BME280_pressure;Samples;Min_cycle;Max_cycle;Signal;HPM_P1;HPM_P2
2021/12/04 00:02:09;;;;;;;68.18;28.17;;;5.30;99.90;;;;;;4986131;28;20050;-72
2021/12/04 00:04:41;;;;;;;72.72;29.42;;;5.20;99.90;;;;;;4987736;28;20410;-72
2021/12/04 00:07:09;;;;;;;74.47;29.77;;;5.10;99.90;;;;;;4985978;28;20065;-71
2021/12/04 00:09:38;;;;;;;82.30;30.02;;;5.00;99.90;;;;;;4987355;28;20053;-72
2021/12/04 00:12:07;;;;;;;102.43;32.92;;;4.90;99.90;;;;;;4986379;28;20058;-72
2021/12/04 00:14:36;;;;;;;103.20;35.38;;;4.90;99.90;;;;;;4987312;28;20049;-72
2021/12/04 00:20:14;;;;;;;135.88;36.40;;;4.80;99.90;;;;;;4981410;28;20042;-72
2021/12/04 00:22:42;;;;;;;198.73;40.53;;;4.80;99.90;;;;;;4979067;28;20051;-74
2021/12/04 00:25:10;;;;;;;298.00;39.75;;;4.80;99.90;;;;;;4986387;28;20054;-72
2021/12/04 00:27:38;;;;;;;247.75;39.03;;;4.80;99.90;;;;;;4974813;28;20042;-72
2021/12/04 00:30:06;;;;;;;;;;;4.70;99.90;;;;;;4985325;28;20042;-71
2021/12/04 00:32:36;;;;;;;253.88;38.75;;;4.70;99.90;;;;;;5018064;28;19930;-74
2021/12/04 00:35:17;;;;;;;195.82;37.75;;;4.70;99.90;;;;;;4985855;28;20058;-74
2021/12/04 00:43:26;;;;;;;128.60;29.30;;;4.60;99.90;;;;;;4987045;28;20408;-71
2021/12/04 00:51:26;;;;;;;110.03;27.65;;;4.60;99.90;;;;;;4986817;28;20175;-72
2021/12/04 00:53:54;;;;;;;164.00;29.48;;;4.60;99.90;;;;;;4986500;28;20058;-72
2021/12/04 00:56:23;;;;;;;173.77;28.38;;;4.50;99.90;;;;;;4986768;28;20050;-72
2021/12/04 00:58:50;;;;;;;178.50;27.95;;;4.40;99.90;;;;;;5001112;28;20137;-72
2021/12/04 01:01:19;;;;;;;130.75;27.10;;;4.40;99.90;;;;;;4985275;28;20061;-72
2021/12/04 01:03:47;;;;;;;205.88;27.88;;;4.50;99.90;;;;;;5001152;28;20057;-72
2021/12/04 01:06:15;;;;;;;152.13;25.95;;;4.30;99.90;;;;;;4985603;28;20062;-72
2021/12/04 01:08:42;;;;;;;128.30;25.05;;;4.30;99.90;;;;;;4986705;28;20398;-72
2021/12/04 01:11:10;;;;;;;100.78;22.92;;;4.30;99.90;;;;;;4985304;28;20057;-72
2021/12/04 01:13:38;;;;;;;122.57;23.38;;;4.20;99.90;;;;;;4985198;28;20054;-72
2021/12/04 01:16:06;;;;;;;164.88;24.38;;;4.20;99.90;;;;;;4983269;28;20043;-71
2021/12/04 01:18:34;;;;;;;115.68;22.05;;;4.10;99.90;;;;;;4975226;28;20054;-72
2021/12/04 01:21:01;;;;;;;89.40;20.75;;;4.10;99.90;;;;;;5001026;28;20072;-72
2021/12/04 01:23:29;;;;;;;66.05;20.45;;;4.00;99.90;;;;;;4999097;28;20043;-72
2021/12/04 01:25:57;;;;;;;65.13;20.10;;;4.00;99.90;;;;;;4977185;28;20050;-72
2021/12/04 01:28:25;;;;;;;56.33;19.52;;;3.90;99.90;;;;;;4999918;28;20054;-72
2021/12/04 01:30:54;;;;;;;55.72;19.90;;;3.80;99.90;;;;;;5000940;28;20061;-73
2021/12/04 01:33:21;;;;;;;50.53;18.30;;;3.80;99.90;;;;;;5017079;28;20046;-72
2021/12/04 01:35:49;;;;;;;53.20;17.85;;;3.80;99.90;;;;;;4986202;28;20049;-72
2021/12/04 01:38:17;;;;;;;47.33;17.83;;;3.80;99.90;;;;;;5000725;28;20054;-73
2021/12/04 01:40:45;;;;;;;52.13;17.45;;;3.70;99.90;;;;;;4984530;28;20142;-72
2021/12/04 01:43:12;;;;;;;;;;;3.70;99.90;;;;;;4986432;28;20403;-73
2021/12/04 01:45:40;;;;;;;40.47;15.95;;;3.60;99.90;;;;;;4985680;28;20297;-72
2021/12/04 01:48:08;;;;;;;42.33;15.15;;;3.60;99.90;;;;;;4986076;28;20047;-72
2021/12/04 01:50:36;;;;;;;44.83;15.73;;;3.50;99.90;;;;;;4984939;28;20696;-72
2021/12/04 01:53:04;;;;;;;;;;;3.50;99.90;;;;;;4986460;28;20069;-72
2021/12/04 01:55:34;;;;;;;38.05;14.57;;;3.50;99.90;;;;;;4985764;28;19926;-72
2021/12/04 01:58:04;;;;;;;40.70;14.98;;;3.40;99.90;;;;;;5000986;28;20050;-72
2021/12/04 02:00:35;;;;;;;42.40;15.15;;;3.40;99.90;;;;;;4985687;28;20495;-73
2021/12/04 02:03:04;;;;;;;36.03;14.43;;;3.30;99.90;;;;;;4984157;28;20050;-72
2021/12/04 02:05:32;;;;;;;41.58;14.63;;;3.30;99.90;;;;;;4985960;28;20509;-73
2021/12/04 02:07:59;;;;;;;39.40;14.60;;;3.20;99.90;;;;;;4985817;28;20054;-72
2021/12/04 02:10:27;;;;;;;38.78;13.30;;;3.20;99.90;;;;;;4985493;28;20518;-72
2021/12/04 02:12:55;;;;;;;35.55;14.70;;;3.20;99.90;;;;;;4984619;28;20057;-72
2021/12/04 02:15:22;;;;;;;39.88;13.77;;;3.20;99.90;;;;;;4985934;28;20050;-72
2021/12/04 02:17:50;;;;;;;38.65;14.60;;;3.20;99.90;;;;;;4972350;28;20398;-72
2021/12/04 02:20:31;;;;;;;42.55;14.65;;;3.20;99.90;;;;;;4989763;28;20324;-72
2021/12/04 02:23:00;;;;;;;40.83;14.80;;;3.20;99.90;;;;;;4989548;28;20054;-73
2021/12/04 02:25:28;;;;;;;39.13;14.65;;;3.20;99.90;;;;;;5010826;28;20046;-72
2021/12/04 02:27:56;;;;;;;39.83;13.73;;;3.20;99.90;;;;;;4987833;28;20062;-72
2021/12/04 02:30:29;;;;;;;43.13;15.00;;;3.20;99.90;;;;;;4969066;28;20050;-72
2021/12/04 02:32:57;;;;;;;40.92;14.18;;;3.10;99.90;;;;;;4984315;28;20046;-72
2021/12/04 02:35:26;;;;;;;36.85;13.45;;;3.10;99.90;;;;;;4989502;28;20062;-73
2021/12/04 02:37:54;;;;;;;39.83;13.55;;;3.10;99.90;;;;;;4987960;28;20495;-72
2021/12/04 02:40:23;;;;;;;37.25;13.68;;;3.10;99.90;;;;;;4989102;28;20340;-72
2021/12/04 02:42:50;;;;;;;31.92;12.75;;;3.10;99.90;;;;;;4988148;28;20050;-72
2021/12/04 02:45:19;;;;;;;33.28;12.30;;;3.00;99.90;;;;;;4988904;28;20926;-72
2021/12/04 02:47:46;;;;;;;;;;;2.90;99.90;;;;;;4980963;28;20351;-72
2021/12/04 02:50:14;;;;;;;27.83;10.65;;;2.90;99.90;;;;;;5020411;28;19921;-72
2021/12/04 02:52:43;;;;;;;26.92;11.13;;;2.80;99.90;;;;;;4984554;28;20043;-73
2021/12/04 02:55:11;;;;;;;25.80;10.82;;;2.80;99.90;;;;;;4983720;28;20066;-72
2021/12/04 02:57:43;;;;;;;;;;;2.70;99.90;;;;;;4973969;28;20070;-72
2021/12/04 03:00:23;;;;;;;25.60;10.55;;;2.70;99.90;;;;;;4995615;28;19926;-73
2021/12/04 03:02:51;;;;;;;25.08;10.23;;;2.70;99.90;;;;;;4978056;28;20050;-72
2021/12/04 03:05:24;;;;;;;26.38;10.35;;;2.70;99.90;;;;;;4986426;28;20038;-72
2021/12/04 03:07:53;;;;;;;26.42;10.25;;;2.70;99.90;;;;;;5004257;28;20122;-72
2021/12/04 03:10:22;;;;;;;27.17;11.00;;;2.70;99.90;;;;;;4984829;28;20047;-72
2021/12/04 03:12:50;;;;;;;30.63;11.32;;;2.80;99.90;;;;;;4979365;28;20062;-72
2021/12/04 03:15:20;;;;;;;29.13;11.82;;;2.80;99.90;;;;;;4988696;28;20053;-73
2021/12/04 03:17:49;;;;;;;29.33;10.88;;;2.80;99.90;;;;;;4988087;28;20414;-73
2021/12/04 03:20:17;;;;;;;31.40;10.73;;;2.90;99.90;;;;;;5000212;28;20486;-72
2021/12/04 03:22:47;;;;;;;26.27;10.77;;;2.90;99.90;;;;;;4988757;28;20054;-72
2021/12/04 03:25:18;;;;;;;27.77;10.80;;;3.00;99.90;;;;;;4988716;28;20410;-72
2021/12/04 03:27:49;;;;;;;29.25;10.70;;;3.00;99.90;;;;;;4983837;28;20058;-72
2021/12/04 03:31:05;;;;;;;25.25;10.85;;;3.10;99.90;;;;;;4980986;28;20046;-72
2021/12/04 03:41:17;;;;;;;26.45;10.50;;;3.20;99.90;;;;;;4988586;28;20046;-73
2021/12/04 03:43:45;;;;;;;25.65;9.95;;;3.30;99.90;;;;;;5019976;28;20049;-73
2021/12/04 03:46:16;;;;;;;28.60;10.32;;;3.30;99.90;;;;;;4988667;28;20049;-72
2021/12/04 03:51:12;;;;;;;30.90;10.93;;;3.40;99.90;;;;;;4987316;28;20411;-72
2021/12/04 03:53:40;;;;;;;31.30;10.43;;;3.40;99.90;;;;;;4988858;28;20046;-72
2021/12/04 03:56:10;;;;;;;26.27;10.88;;;3.40;99.90;;;;;;5019658;28;20434;-73
2021/12/04 03:58:37;;;;;;;27.88;10.18;;;3.40;99.90;;;;;;5019916;28;20553;-73
2021/12/04 04:01:06;;;;;;;23.80;9.50;;;3.40;99.90;;;;;;4970552;28;20050;-72
2021/12/04 04:03:34;;;;;;;29.95;10.82;;;3.40;99.90;;;;;;4989693;28;20502;-72
2021/12/04 04:06:01;;;;;;;31.42;10.18;;;3.30;99.90;;;;;;5003245;28;20061;-73
2021/12/04 04:08:29;;;;;;;23.60;9.88;;;3.30;99.90;;;;;;4986883;28;20039;-72
2021/12/04 04:10:58;;;;;;;24.20;9.48;;;3.30;99.90;;;;;;5001393;28;20042;-72
2021/12/04 04:13:25;;;;;;;24.65;9.95;;;3.20;99.90;;;;;;5003025;28;20058;-72
2021/12/04 04:15:53;;;;;;;31.85;10.68;;;3.20;99.90;;;;;;5019545;28;20046;-73
2021/12/04 04:18:21;;;;;;;32.88;11.32;;;3.10;99.90;;;;;;4987841;28;20057;-72
2021/12/04 04:20:49;;;;;;;27.13;10.27;;;3.10;99.90;;;;;;4988276;28;20141;-73
2021/12/04 04:23:17;;;;;;;30.10;10.88;;;3.10;99.90;;;;;;4987756;28;20495;-73
2021/12/04 04:25:44;;;;;;;35.20;11.40;;;3.10;99.90;;;;;;4987072;28;20049;-73
2021/12/04 04:28:12;;;;;;;32.90;11.32;;;3.20;99.90;;;;;;4987793;28;20046;-72
2021/12/04 04:30:40;;;;;;;34.67;11.40;;;3.20;99.90;;;;;;5019448;28;20054;-72
2021/12/04 04:33:11;;;;;;;32.00;11.18;;;3.20;99.90;;;;;;4987806;28;20046;-72
2021/12/04 04:35:38;;;;;;;41.13;12.35;;;3.20;99.90;;;;;;4986162;28;20065;-72
2021/12/04 05:02:38;;;;;;;40.42;12.93;;;3.90;99.90;;;;;;4976127;28;20751;-73
2021/12/04 05:13:26;;;;;;;41.17;13.07;;;4.10;99.90;;;;;;4987008;28;20054;-74
2021/12/04 05:21:05;;;;;;;41.05;14.80;;;4.30;99.90;;;;;;4986908;28;20050;-73
2021/12/04 05:23:38;;;;;;;43.45;15.88;;;4.30;99.90;;;;;;5018217;28;20069;-73
2021/12/04 05:26:08;;;;;;;43.45;15.48;;;4.40;99.90;;;;;;5001694;28;20077;-73
2021/12/04 05:28:36;;;;;;;40.85;14.18;;;4.40;99.90;;;;;;4986903;28;20050;-73
2021/12/04 05:31:04;;;;;;;46.25;15.73;;;4.50;99.90;;;;;;4986945;28;20054;-73
2021/12/04 05:33:32;;;;;;;47.35;16.42;;;4.60;99.90;;;;;;4986799;28;20055;-71
2021/12/04 05:36:00;;;;;;;53.10;16.20;;;4.80;99.90;;;;;;5018133;28;20073;-71
2021/12/04 05:38:28;;;;;;;;;;;5.00;99.90;;;;;;4985909;28;20058;-71
2021/12/04 05:40:56;;;;;;;;;;;5.20;99.90;;;;;;5018287;28;20279;-72
2021/12/04 05:43:25;;;;;;;50.28;14.88;;;5.40;99.90;;;;;;5017071;28;19953;-71
2021/12/04 05:45:59;;;;;;;55.95;17.92;;;5.60;99.90;;;;;;5017665;28;20042;-71
2021/12/04 05:48:40;;;;;;;52.08;17.50;;;5.80;99.90;;;;;;4985388;28;20054;-71
2021/12/04 05:56:34;;;;;;;58.67;19.35;;;6.30;99.90;;;;;;4983884;28;20057;-72
2021/12/04 05:59:04;;;;;;;51.63;18.23;;;6.50;99.90;;;;;;5017152;28;20058;-71
2021/12/04 06:01:32;;;;;;;60.58;19.63;;;6.60;99.90;;;;;;4983042;28;20042;-72
2021/12/04 06:04:00;;;;;;;53.97;19.05;;;6.70;99.90;;;;;;4974638;28;20144;-72
2021/12/04 06:06:28;;;;;;;53.28;19.58;;;6.80;99.90;;;;;;4985118;28;20038;-73
2021/12/04 06:09:00;;;;;;;48.65;20.42;;;6.90;99.90;;;;;;4985835;28;20077;-73
2021/12/04 06:11:29;;;;;;;58.25;21.38;;;6.90;99.90;;;;;;5000649;28;20061;-71
2021/12/04 06:13:57;;;;;;;54.70;21.48;;;7.00;99.90;;;;;;4985717;28;20077;-73
2021/12/04 06:16:24;;;;;;;52.13;21.15;;;7.00;99.90;;;;;;4985801;28;20046;-72
2021/12/04 06:18:53;;;;;;;52.30;22.33;;;7.00;99.90;;;;;;5000284;28;20054;-72
2021/12/04 06:24:07;;;;;;;58.63;21.92;;;6.90;99.90;;;;;;4973123;28;20070;-72
2021/12/04 06:26:37;;;;;;;59.58;21.67;;;6.80;99.90;;;;;;4984213;28;20529;-74
2021/12/04 06:29:04;;;;;;;54.33;21.60;;;6.80;99.90;;;;;;4984538;28;20053;-72
2021/12/04 06:31:32;;;;;;;55.80;22.02;;;6.80;99.90;;;;;;5000682;28;20050;-73
2021/12/04 06:34:00;;;;;;;52.00;18.90;;;6.80;99.90;;;;;;4985524;28;20061;-72
2021/12/04 06:36:28;;;;;;;48.33;19.50;;;6.80;99.90;;;;;;4985554;28;20050;-74
2021/12/04 06:38:55;;;;;;;52.15;20.23;;;6.80;99.90;;;;;;4984019;28;20085;-74
2021/12/04 06:41:24;;;;;;;52.30;20.05;;;6.80;99.90;;;;;;4984411;28;20050;-73
2021/12/04 06:43:52;;;;;;;;;;;6.80;99.90;;;;;;4985849;28;20702;-74
2021/12/04 06:46:22;;;;;;;47.00;19.50;;;6.80;99.90;;;;;;4985564;28;20258;-72
2021/12/04 06:49:06;;;;;;;47.15;19.35;;;6.70;99.90;;;;;;5016280;28;20062;-74
2021/12/04 06:51:40;;;;;;;43.83;18.40;;;6.80;99.90;;;;;;4985516;28;20046;-72
2021/12/04 06:54:18;;;;;;;46.63;19.58;;;6.80;99.90;;;;;;4981502;28;20054;-73
2021/12/04 06:56:49;;;;;;;46.83;18.63;;;6.70;99.90;;;;;;4984979;28;20065;-74
2021/12/04 06:59:27;;;;;;;44.10;18.65;;;6.80;99.90;;;;;;4983808;28;20432;-74
2021/12/04 07:01:55;;;;;;;;;;;6.70;99.90;;;;;;4979926;28;20046;-74
2021/12/04 07:04:29;;;;;;;49.58;19.35;;;6.70;99.90;;;;;;4981915;28;20286;-73
2021/12/04 07:06:57;;;;;;;42.47;18.88;;;6.80;99.90;;;;;;5019920;28;20046;-73
2021/12/04 07:09:25;;;;;;;43.40;19.05;;;6.80;99.90;;;;;;5019036;28;20081;-73
2021/12/04 07:11:53;;;;;;;41.92;19.08;;;6.80;99.90;;;;;;5019831;28;20057;-73
2021/12/04 07:14:21;;;;;;;44.60;18.15;;;6.80;99.90;;;;;;5019593;28;20046;-73
2021/12/04 07:16:49;;;;;;;38.00;17.08;;;6.70;99.90;;;;;;5003007;28;20058;-73
2021/12/04 07:19:17;;;;;;;34.53;16.60;;;6.70;99.90;;;;;;4988655;28;20046;-75
2021/12/04 07:21:46;;;;;;;42.33;18.30;;;6.80;99.90;;;;;;5003226;28;20057;-74
2021/12/04 07:24:18;;;;;;;36.05;16.65;;;6.70;99.90;;;;;;5017553;28;20051;-74
2021/12/04 07:26:48;;;;;;;38.88;18.13;;;6.70;99.90;;;;;;4988163;28;20483;-72
2021/12/04 07:29:15;;;;;;;37.28;17.55;;;6.60;99.90;;;;;;5002982;28;20326;-74
2021/12/04 07:31:43;;;;;;;34.72;16.60;;;6.60;99.90;;;;;;4984684;28;20042;-73
2021/12/04 07:34:11;;;;;;;38.67;16.88;;;6.60;99.90;;;;;;4985327;28;20050;-74
2021/12/04 07:36:39;;;;;;;35.00;16.42;;;6.60;99.90;;;;;;4986526;28;20054;-74
2021/12/04 07:39:07;;;;;;;;;;;6.60;99.90;;;;;;4986834;28;20503;-73
2021/12/04 07:41:38;;;;;;;28.00;14.82;;;6.60;99.90;;;;;;4984147;28;19925;-75
2021/12/04 07:44:08;;;;;;;32.50;15.10;;;6.50;99.90;;;;;;4987333;28;20050;-74
2021/12/04 07:46:38;;;;;;;26.55;13.77;;;6.50;99.90;;;;;;4986955;28;20057;-74
2021/12/04 07:49:06;;;;;;;27.55;14.40;;;6.60;99.90;;;;;;4981997;28;20043;-74
2021/12/04 07:51:35;;;;;;;28.05;13.32;;;6.40;99.90;;;;;;4980585;28;20053;-73
2021/12/04 07:54:03;;;;;;;26.77;13.30;;;6.40;99.90;;;;;;4986279;28;20046;-72
2021/12/04 07:56:31;;;;;;;27.17;12.60;;;6.40;99.90;;;;;;5004057;28;20050;-74
2021/12/04 07:58:59;;;;;;;24.98;12.73;;;6.30;99.90;;;;;;5012270;28;20051;-73
2021/12/04 08:01:27;;;;;;;23.60;12.43;;;6.40;99.90;;;;;;4996503;28;20415;-74
2021/12/04 08:03:55;;;;;;;25.25;12.98;;;6.30;99.90;;;;;;4984928;28;20042;-72
2021/12/04 08:06:23;;;;;;;26.63;11.90;;;6.30;99.90;;;;;;4984798;28;20046;-73
2021/12/04 08:08:53;;;;;;;21.08;11.27;;;6.30;99.90;;;;;;4994113;28;20062;-73
2021/12/04 08:11:21;;;;;;;23.15;11.38;;;6.20;99.90;;;;;;4984126;28;20293;-73
2021/12/04 08:13:48;;;;;;;21.10;11.60;;;6.20;99.90;;;;;;4997759;28;20364;-73
2021/12/04 08:16:18;;;;;;;19.45;10.88;;;6.20;99.90;;;;;;4981768;28;20046;-76
2021/12/04 08:18:46;;;;;;;21.23;10.05;;;6.20;99.90;;;;;;4980943;28;20686;-76
2021/12/04 08:21:14;;;;;;;;;;;6.30;99.90;;;;;;4984754;28;20050;-78
2021/12/04 08:23:42;;;;;;;17.98;9.30;;;6.10;99.90;;;;;;4984400;28;19925;-78
2021/12/04 08:26:09;;;;;;;24.25;9.70;;;6.10;99.90;;;;;;4985345;28;20046;-79
2021/12/04 08:28:38;;;;;;;20.60;9.30;;;6.10;99.90;;;;;;4979141;28;20414;-78
2021/12/04 08:31:09;;;;;;;19.20;9.40;;;6.00;99.90;;;;;;4998206;28;20050;-74
2021/12/04 08:33:39;;;;;;;18.77;9.93;;;6.00;99.90;;;;;;4997457;28;20046;-76
2021/12/04 08:36:07;;;;;;;;;;;6.00;99.90;;;;;;5000640;28;20038;-74
2021/12/04 08:38:36;;;;;;;;;;;6.00;99.90;;;;;;4986110;28;19922;-75
2021/12/04 08:41:04;;;;;;;19.10;8.38;;;6.00;99.90;;;;;;4986267;28;20390;-74
2021/12/04 08:43:33;;;;;;;17.90;8.52;;;6.00;99.90;;;;;;4984679;28;20053;-74
2021/12/04 08:46:03;;;;;;;23.48;9.23;;;6.00;99.90;;;;;;5000474;28;20054;-76
2021/12/04 08:48:33;;;;;;;20.80;9.25;;;5.90;99.90;;;;;;4985419;28;20053;-75
2021/12/04 08:51:02;;;;;;;15.60;8.60;;;5.90;99.90;;;;;;4985919;28;20925;-75
2021/12/04 08:53:30;;;;;;;17.95;9.55;;;5.90;99.90;;;;;;4982481;28;20046;-75
2021/12/04 08:56:00;;;;;;;16.90;7.70;;;5.90;99.90;;;;;;4984207;28;20041;-75
2021/12/04 08:58:32;;;;;;;19.23;9.00;;;5.90;99.90;;;;;;4982999;28;20061;-77
2021/12/04 09:01:05;;;;;;;17.67;7.00;;;5.80;99.90;;;;;;4966929;28;20061;-74
2021/12/04 09:03:38;;;;;;;13.07;6.22;;;5.90;99.90;;;;;;4982218;28;20053;-78
2021/12/04 09:06:06;;;;;;;19.75;5.95;;;5.80;99.90;;;;;;4998486;28;20073;-76
2021/12/04 09:08:35;;;;;;;12.52;5.05;;;5.70;99.90;;;;;;4983877;28;20046;-78
2021/12/04 09:11:12;;;;;;;13.57;4.72;;;5.60;99.90;;;;;;4980527;28;20050;-76
2021/12/04 09:13:41;;;;;;;15.65;4.07;;;5.60;99.90;;;;;;4978864;28;20160;-78
2021/12/04 09:16:10;;;;;;;9.38;3.78;;;5.60;99.90;;;;;;4984119;28;20046;-81
2021/12/04 09:18:38;;;;;;;17.60;3.90;;;5.50;99.90;;;;;;4985198;28;20042;-80
2021/12/04 09:21:09;;;;;;;16.33;3.42;;;5.50;99.90;;;;;;4965920;28;20054;-81
2021/12/04 09:23:42;;;;;;;15.25;3.67;;;5.50;99.90;;;;;;4983612;28;20046;-81
2021/12/04 09:26:16;;;;;;;9.05;3.22;;;5.50;99.90;;;;;;4983624;28;20050;-78
2021/12/04 09:29:03;;;;;;;11.48;3.03;;;5.50;99.90;;;;;;4984983;28;20043;-80
2021/12/04 09:32:04;;;;;;;12.47;3.13;;;5.60;99.90;;;;;;5004932;28;20085;-76
2021/12/04 10:13:42;;;;;;;12.98;1.85;;;8.00;99.90;;;;;;4980169;28;20077;-72
2021/12/04 10:16:54;;;;;;;10.80;1.77;;;8.60;99.90;;;;;;4984077;28;20616;-72
2021/12/04 10:19:25;;;;;;;14.75;2.05;;;9.10;99.90;;;;;;4983863;28;20522;-73
2021/12/04 10:33:43;;;;;;;8.88;1.70;;;10.70;99.90;;;;;;5016637;28;20057;-72
2021/12/04 10:36:12;;;;;;;13.73;2.03;;;11.00;99.90;;;;;;4985470;28;20042;-72
2021/12/04 10:38:44;;;;;;;16.67;2.70;;;11.00;99.90;;;;;;4988412;28;20062;-73
2021/12/04 10:41:13;;;;;;;11.82;2.40;;;11.00;99.90;;;;;;4989302;28;20050;-72
2021/12/04 10:43:40;;;;;;;13.25;2.25;;;11.00;99.90;;;;;;5020598;28;20423;-72
2021/12/04 10:46:15;;;;;;;15.20;2.60;;;11.20;99.90;;;;;;5009404;28;20487;-72
2021/12/04 10:48:51;;;;;;;13.52;2.30;;;11.40;99.90;;;;;;4988775;28;20062;-71
2021/12/04 10:51:34;;;;;;;15.10;2.30;;;11.60;99.90;;;;;;4987998;28;20042;-72
2021/12/04 10:54:23;;;;;;;13.98;2.65;;;11.80;99.90;;;;;;4987151;28;20051;-74
2021/12/04 10:57:27;;;;;;;14.63;2.50;;;11.80;99.90;;;;;;4986188;28;20073;-74
2021/12/04 10:59:58;;;;;;;10.88;2.17;;;11.90;99.90;;;;;;4984630;28;20053;-74
2021/12/04 11:03:05;;;;;;;13.10;2.20;;;11.90;99.90;;;;;;4977432;28;20054;-75
2021/12/04 11:27:51;;;;;;;11.25;2.28;;;13.30;99.90;;;;;;4985566;28;20057;-74
2021/12/04 11:38:52;;;;;;;10.38;2.20;;;13.80;99.90;;;;;;4988394;28;20491;-76
2021/12/04 11:44:16;;;;;;;9.40;2.10;;;14.00;99.90;;;;;;4985637;28;19932;-76
2021/12/04 11:46:45;;;;;;;7.93;2.10;;;14.00;99.70;;;;;;4988004;28;20039;-77
2021/12/04 11:49:16;;;;;;;12.68;2.45;;;13.90;99.70;;;;;;4985779;28;20070;-77
2021/12/04 11:51:56;;;;;;;14.27;2.35;;;13.70;98.90;;;;;;4987395;28;20073;-78
2021/12/04 11:54:28;;;;;;;15.32;2.47;;;13.40;98.70;;;;;;4986806;28;20050;-77
2021/12/04 11:57:09;;;;;;;12.05;2.20;;;13.00;98.70;;;;;;4987260;28;20483;-75
2021/12/04 11:59:40;;;;;;;14.88;2.53;;;12.80;99.20;;;;;;4986849;28;20057;-78
2021/12/04 12:02:15;;;;;;;12.95;2.25;;;12.70;99.90;;;;;;4995048;28;20055;-78
2021/12/04 12:04:54;;;;;;;10.75;2.15;;;12.60;99.60;;;;;;4983240;28;20421;-77
2021/12/04 12:07:23;;;;;;;;;;;12.60;99.90;;;;;;4988245;28;20057;-80
2021/12/04 12:10:08;;;;;;;12.85;2.30;;;12.70;98.90;;;;;;5019424;28;19930;-78
2021/12/04 12:12:40;;;;;;;16.20;2.25;;;12.70;98.80;;;;;;4986261;28;20062;-80
2021/12/04 12:15:19;;;;;;;18.30;2.22;;;12.80;98.80;;;;;;4987676;28;20034;-76
2021/12/04 12:17:47;;;;;;;14.45;2.58;;;12.80;97.70;;;;;;4986666;28;20054;-76
2021/12/04 12:20:29;;;;;;;11.30;2.03;;;12.50;98.50;;;;;;4987574;28;20045;-76
2021/12/04 12:23:07;;;;;;;13.27;2.17;;;12.00;98.20;;;;;;5002528;28;20054;-76
2021/12/04 12:31:50;;;;;;;10.90;2.15;;;10.90;99.60;;;;;;4978222;28;20057;-76
2021/12/04 12:37:24;;;;;;;9.20;1.75;;;10.10;99.90;;;;;;4987252;28;20065;-75
2021/12/04 12:39:55;;;;;;;12.60;1.80;;;10.00;99.90;;;;;;4987401;28;20101;-75
2021/12/04 12:42:43;;;;;;;10.65;1.73;;;10.00;99.90;;;;;;4985396;28;20050;-76
2021/12/04 12:45:28;;;;;;;11.75;1.90;;;9.90;99.90;;;;;;4987268;28;20073;-76
2021/12/04 12:48:01;;;;;;;13.50;1.88;;;9.90;99.90;;;;;;4974173;28;20054;-75
2021/12/04 12:50:38;;;;;;;14.50;1.80;;;9.90;99.90;;;;;;4987114;28;20054;-76
2021/12/04 12:53:13;;;;;;;14.48;2.25;;;10.00;99.90;;;;;;4985890;28;20046;-75
2021/12/04 12:55:42;;;;;;;13.93;2.13;;;9.90;99.90;;;;;;4972521;28;20058;-78
2021/12/04 12:58:33;;;;;;;9.73;1.90;;;9.80;99.90;;;;;;4985463;28;20065;-75
2021/12/04 13:12:50;;;;;;;18.95;2.00;;;9.50;99.90;;;;;;4983235;28;20043;-78
2021/12/04 13:15:36;;;;;;;13.55;1.60;;;9.50;99.90;;;;;;4984084;28;20046;-80
2021/12/04 13:18:20;;;;;;;13.52;1.63;;;9.40;99.90;;;;;;4981425;28;20043;-83
2021/12/04 13:20:51;;;;;;;10.10;1.52;;;9.20;99.90;;;;;;4967375;28;20054;-78
2021/12/04 13:23:22;;;;;;;15.77;2.10;;;9.00;99.90;;;;;;4984569;28;20049;-78
2021/12/04 13:25:56;;;;;;;16.58;1.92;;;8.90;99.90;;;;;;4982653;28;20046;-78
2021/12/04 13:28:28;;;;;;;13.70;1.75;;;8.80;99.90;;;;;;4983111;28;20050;-80
2021/12/04 13:31:01;;;;;;;11.45;1.80;;;8.70;99.90;;;;;;4980992;28;20050;-79
2021/12/04 13:33:36;;;;;;;8.45;1.48;;;8.80;99.90;;;;;;4997059;28;20059;-80
2021/12/04 13:36:14;;;;;;;14.80;1.85;;;8.60;99.90;;;;;;4994383;28;20061;-82
2021/12/04 13:38:42;;;;;;;10.15;1.52;;;8.70;99.90;;;;;;4979396;28;20046;-80
2021/12/04 13:41:12;;;;;;;11.52;1.38;;;8.60;99.90;;;;;;4979697;28;20057;-74
2021/12/04 13:43:40;;;;;;;10.60;1.58;;;8.70;99.90;;;;;;4982107;28;20054;-76
2021/12/04 13:46:07;;;;;;;10.18;1.58;;;8.60;99.90;;;;;;4982522;28;20430;-74
2021/12/04 13:48:35;;;;;;;11.35;1.65;;;8.60;99.90;;;;;;4976087;28;20481;-73
2021/12/04 13:51:04;;;;;;;;;;;8.70;99.90;;;;;;4982984;28;20050;-75
2021/12/04 13:53:41;;;;;;;10.00;1.92;;;8.80;99.90;;;;;;4983396;28;19937;-75
2021/12/04 13:56:13;;;;;;;10.88;2.08;;;8.90;99.90;;;;;;4983464;28;20050;-73
2021/12/04 13:58:50;;;;;;;11.27;1.75;;;9.00;99.90;;;;;;4982925;28;20035;-73
2021/12/04 14:01:17;;;;;;;12.82;1.60;;;9.10;99.90;;;;;;4980498;28;20414;-73
2021/12/04 14:03:47;;;;;;;10.25;2.13;;;9.20;99.90;;;;;;4972944;28;20594;-73
2021/12/04 14:06:17;;;;;;;11.18;1.80;;;9.20;99.90;;;;;;5000757;28;20051;-75
2021/12/04 14:08:57;;;;;;;12.82;1.80;;;9.20;99.90;;;;;;4985710;28;20054;-75
2021/12/04 14:11:36;;;;;;;13.27;1.60;;;9.10;99.90;;;;;;4985564;28;20054;-74
2021/12/04 14:14:16;;;;;;;8.68;1.60;;;9.00;99.90;;;;;;4988469;28;20065;-77
2021/12/04 14:16:46;;;;;;;10.43;1.70;;;8.90;99.90;;;;;;4987769;28;20065;-75
2021/12/04 14:19:16;;;;;;;10.15;1.83;;;8.70;99.90;;;;;;4985498;28;20046;-73
2021/12/04 14:22:26;;;;;;;7.22;1.52;;;8.60;99.90;;;;;;4986875;28;20043;-75
2021/12/04 14:24:59;;;;;;;14.57;1.65;;;8.50;99.90;;;;;;4983195;28;20423;-73
2021/12/04 14:27:32;;;;;;;16.17;2.10;;;8.50;99.90;;;;;;5000764;28;20047;-75
2021/12/04 14:30:11;;;;;;;13.75;1.88;;;8.50;99.90;;;;;;4991431;28;20058;-75
2021/12/04 14:32:42;;;;;;;13.30;2.15;;;8.40;99.90;;;;;;4985700;28;20066;-74
2021/12/04 14:35:15;;;;;;;11.75;2.20;;;8.30;99.90;;;;;;4989352;28;20054;-74
2021/12/04 14:37:45;;;;;;;10.10;1.98;;;8.20;99.90;;;;;;4971484;28;20527;-75
2021/12/04 14:40:16;;;;;;;11.93;1.95;;;8.20;99.90;;;;;;4987916;28;20059;-75
2021/12/04 14:42:45;;;;;;;11.15;1.75;;;8.20;99.90;;;;;;4988845;28;20053;-75
2021/12/04 14:45:19;;;;;;;11.27;2.20;;;8.30;99.90;;;;;;4989224;28;20050;-75
2021/12/04 14:47:57;;;;;;;10.73;2.08;;;8.20;99.90;;;;;;4987262;28;20506;-73
2021/12/04 14:50:25;;;;;;;12.80;2.00;;;8.20;99.90;;;;;;4988543;28;20486;-74
2021/12/04 14:52:58;;;;;;;10.43;2.50;;;8.20;99.90;;;;;;4983907;28;20050;-74
2021/12/04 14:55:28;;;;;;;11.25;2.30;;;8.10;99.90;;;;;;4979252;28;20054;-75
2021/12/04 14:57:57;;;;;;;12.63;2.40;;;8.10;99.90;;;;;;4984085;28;20051;-75
2021/12/04 15:00:30;;;;;;;18.50;3.15;;;8.10;99.90;;;;;;4983994;28;20055;-75
2021/12/04 15:03:02;;;;;;;15.13;2.20;;;8.00;99.90;;;;;;4988217;28;20062;-75
2021/12/04 15:05:36;;;;;;;12.63;1.95;;;8.10;99.90;;;;;;4989013;28;20047;-76
2021/12/04 15:08:10;;;;;;;11.02;2.10;;;7.90;99.90;;;;;;4988340;28;20416;-77
2021/12/04 15:10:43;;;;;;;;;;;7.90;99.90;;;;;;5003580;28;20061;-74
2021/12/04 15:13:19;;;;;;;13.30;1.73;;;7.80;99.90;;;;;;5002867;28;19930;-77
2021/12/04 15:15:48;;;;;;;11.10;2.30;;;7.70;99.90;;;;;;5003492;28;20050;-75
2021/12/04 15:18:16;;;;;;;11.02;1.90;;;7.70;99.90;;;;;;4985867;28;20061;-75
2021/12/04 15:20:59;;;;;;;11.95;2.22;;;7.70;99.90;;;;;;4988298;28;20163;-75
2021/12/04 15:23:30;;;;;;;13.65;2.72;;;7.60;99.90;;;;;;4986907;28;20066;-75
2021/12/04 15:26:00;;;;;;;11.73;2.63;;;7.60;99.90;;;;;;4987109;28;20432;-75
2021/12/04 15:28:31;;;;;;;19.33;2.78;;;7.60;99.90;;;;;;4986701;28;20065;-75
2021/12/04 15:31:01;;;;;;;11.65;2.22;;;7.50;99.90;;;;;;4988821;28;20061;-75
2021/12/04 15:33:38;;;;;;;9.63;1.73;;;7.50;99.90;;;;;;4987930;28;20050;-74
2021/12/04 15:36:39;;;;;;;12.45;2.30;;;7.30;99.90;;;;;;4991175;28;20054;-75
2021/12/04 15:39:32;;;;;;;12.55;1.90;;;7.30;99.90;;;;;;4975738;28;20038;-76
2021/12/04 15:50:27;;;;;;;14.27;2.65;;;7.00;99.90;;;;;;4987664;28;19929;-75
2021/12/04 15:55:36;;;;;;;13.18;2.42;;;6.80;99.90;;;;;;4986335;28;20049;-75
2021/12/04 15:58:07;;;;;;;12.25;1.90;;;6.70;99.90;;;;;;4983100;28;20057;-76
2021/12/04 16:00:41;;;;;;;12.10;2.13;;;6.60;99.90;;;;;;4984710;28;20050;-75
2021/12/04 16:03:13;;;;;;;13.48;1.95;;;6.60;99.90;;;;;;4970653;28;20063;-74
2021/12/04 16:05:46;;;;;;;13.45;2.05;;;6.60;99.90;;;;;;5002093;28;20061;-77
2021/12/04 16:08:17;;;;;;;11.25;2.17;;;6.50;99.90;;;;;;4987547;28;20054;-76
2021/12/04 16:11:08;;;;;;;8.00;1.95;;;6.40;99.90;;;;;;4999045;28;20042;-78
2021/12/04 16:13:37;;;;;;;17.75;2.28;;;6.40;99.90;;;;;;4986320;28;20050;-77
2021/12/04 16:16:14;;;;;;;15.10;2.05;;;6.30;99.90;;;;;;4967077;28;20529;-77